sensor_id;sensor_type;location;lat;lon;timestamp;P1;durP1;ratioP1;P2;durP2;ratioP2
12906;SDS011;6521;50.498;8.474;2023-11-18T00:00:14;48.10;;;13.17;;
12906;SDS011;6521;50.498;8.474;2023-11-18T00:02:47;44.70;;;13.63;;
12906;SDS011;6521;50.498;8.474;2023-11-18T00:05:18;88.67;;;15.20;;
12906;SDS011;6521;50.498;8.474;2023-11-18T00:07:49;182.23;;;16.17;;
12906;SDS011;6521;50.498;8.474;2023-11-18T00:10:20;52.87;;;14.40;;
12906;SDS011;6521;50.498;8.474;2023-11-18T00:12:51;40.33;;;13.00;;
12906;SDS011;6521;50.498;8.474;2023-11-18T00:15:22;36.20;;;13.07;;
12906;SDS011;6521;50.498;8.474;2023-11-18T00:17:52;48.33;;;13.03;;
12906;SDS011;6521;50.498;8.474;2023-11-18T00:20:23;83.50;;;16.27;;
12906;SDS011;6521;50.498;8.474;2023-11-18T00:22:54;28.63;;;13.70;;
12906;SDS011;6521;50.498;8.474;2023-11-18T00:25:25;29.40;;;13.17;;
12906;SDS011;6521;50.498;8.474;2023-11-18T00:27:56;25.83;;;13.07;;
12906;SDS011;6521;50.498;8.474;2023-11-18T00:30:27;29.30;;;12.00;;
12906;SDS011;6521;50.498;8.474;2023-11-18T00:32:58;26.23;;;12.67;;
12906;SDS011;6521;50.498;8.474;2023-11-18T00:35:30;26.27;;;11.87;;
12906;SDS011;6521;50.498;8.474;2023-11-18T00:38:02;38.87;;;12.47;;
12906;SDS011;6521;50.498;8.474;2023-11-18T00:40:33;56.27;;;15.57;;
12906;SDS011;6521;50.498;8.474;2023-11-18T00:43:05;60.60;;;17.17;;
12906;SDS011;6521;50.498;8.474;2023-11-18T00:45:37;41.47;;;15.93;;
12906;SDS011;6521;50.498;8.474;2023-11-18T00:48:08;40.63;;;15.70;;
12906;SDS011;6521;50.498;8.474;2023-11-18T00:50:39;43.03;;;16.53;;
12906;SDS011;6521;50.498;8.474;2023-11-18T00:53:11;40.93;;;14.83;;
12906;SDS011;6521;50.498;8.474;2023-11-18T00:55:41;29.27;;;12.90;;
12906;SDS011;6521;50.498;8.474;2023-11-18T00:58:12;27.07;;;11.50;;
12906;SDS011;6521;50.498;8.474;2023-11-18T01:00:43;27.83;;;12.30;;
12906;SDS011;6521;50.498;8.474;2023-11-18T01:03:14;34.43;;;13.43;;
12906;SDS011;6521;50.498;8.474;2023-11-18T01:05:45;35.33;;;11.90;;
12906;SDS011;6521;50.498;8.474;2023-11-18T01:08:15;26.17;;;12.87;;
12906;SDS011;6521;50.498;8.474;2023-11-18T01:10:46;27.67;;;11.97;;
12906;SDS011;6521;50.498;8.474;2023-11-18T01:13:17;36.00;;;14.10;;
12906;SDS011;6521;50.498;8.474;2023-11-18T01:15:48;28.90;;;12.27;;
12906;SDS011;6521;50.498;8.474;2023-11-18T01:18:19;35.27;;;13.70;;
12906;SDS011;6521;50.498;8.474;2023-11-18T01:20:51;29.67;;;13.37;;
12906;SDS011;6521;50.498;8.474;2023-11-18T01:23:22;30.53;;;14.07;;
12906;SDS011;6521;50.498;8.474;2023-11-18T01:25:52;90.10;;;14.73;;
12906;SDS011;6521;50.498;8.474;2023-11-18T01:28:23;55.53;;;13.90;;
12906;SDS011;6521;50.498;8.474;2023-11-18T01:30:57;50.90;;;13.37;;
12906;SDS011;6521;50.498;8.474;2023-11-18T01:33:28;150.33;;;14.40;;
12906;SDS011;6521;50.498;8.474;2023-11-18T01:35:58;57.13;;;12.07;;
12906;SDS011;6521;50.498;8.474;2023-11-18T01:38:29;36.20;;;11.07;;
12906;SDS011;6521;50.498;8.474;2023-11-18T01:41:01;79.17;;;12.93;;
12906;SDS011;6521;50.498;8.474;2023-11-18T01:43:32;106.17;;;14.23;;
12906;SDS011;6521;50.498;8.474;2023-11-18T01:46:03;50.30;;;13.23;;
12906;SDS011;6521;50.498;8.474;2023-11-18T01:48:38;55.40;;;12.33;;
12906;SDS011;6521;50.498;8.474;2023-11-18T01:51:13;122.10;;;12.83;;
12906;SDS011;6521;50.498;8.474;2023-11-18T01:53:44;67.30;;;12.23;;
12906;SDS011;6521;50.498;8.474;2023-11-18T01:56:18;31.00;;;11.27;;
12906;SDS011;6521;50.498;8.474;2023-11-18T01:58:52;56.00;;;10.57;;
12906;SDS011;6521;50.498;8.474;2023-11-18T02:01:23;20.07;;;10.97;;
12906;SDS011;6521;50.498;8.474;2023-11-18T02:03:55;47.83;;;11.27;;
12906;SDS011;6521;50.498;8.474;2023-11-18T02:06:25;35.63;;;10.07;;
12906;SDS011;6521;50.498;8.474;2023-11-18T02:08:57;97.87;;;11.83;;
12906;SDS011;6521;50.498;8.474;2023-11-18T02:11:30;80.10;;;11.87;;
12906;SDS011;6521;50.498;8.474;2023-11-18T02:14:04;64.30;;;9.67;;
12906;SDS011;6521;50.498;8.474;2023-11-18T02:16:41;54.23;;;9.80;;
12906;SDS011;6521;50.498;8.474;2023-11-18T02:19:20;49.30;;;9.30;;
12906;SDS011;6521;50.498;8.474;2023-11-18T02:21:52;30.97;;;9.43;;
12906;SDS011;6521;50.498;8.474;2023-11-18T02:24:28;42.47;;;10.40;;
12906;SDS011;6521;50.498;8.474;2023-11-18T02:27:02;51.10;;;9.33;;
12906;SDS011;6521;50.498;8.474;2023-11-18T02:29:37;32.37;;;8.90;;
12906;SDS011;6521;50.498;8.474;2023-11-18T02:35:09;18.40;;;8.30;;
12906;SDS011;6521;50.498;8.474;2023-11-18T02:37:46;18.93;;;8.53;;
12906;SDS011;6521;50.498;8.474;2023-11-18T02:40:20;17.43;;;8.83;;
12906;SDS011;6521;50.498;8.474;2023-11-18T02:43:00;25.10;;;9.70;;
12906;SDS011;6521;50.498;8.474;2023-11-18T02:45:32;22.13;;;8.00;;
12906;SDS011;6521;50.498;8.474;2023-11-18T02:48:05;19.60;;;8.60;;
12906;SDS011;6521;50.498;8.474;2023-11-18T02:50:36;17.67;;;8.63;;
12906;SDS011;6521;50.498;8.474;2023-11-18T02:53:08;29.20;;;8.63;;
12906;SDS011;6521;50.498;8.474;2023-11-18T02:55:39;42.80;;;9.47;;
12906;SDS011;6521;50.498;8.474;2023-11-18T02:58:11;30.27;;;9.17;;
12906;SDS011;6521;50.498;8.474;2023-11-18T03:00:42;30.17;;;8.43;;
12906;SDS011;6521;50.498;8.474;2023-11-18T03:03:14;20.47;;;8.10;;
12906;SDS011;6521;50.498;8.474;2023-11-18T03:05:46;33.60;;;8.13;;
12906;SDS011;6521;50.498;8.474;2023-11-18T03:08:20;18.77;;;8.20;;
12906;SDS011;6521;50.498;8.474;2023-11-18T03:10:51;21.40;;;7.33;;
12906;SDS011;6521;50.498;8.474;2023-11-18T03:13:22;15.07;;;8.13;;
12906;SDS011;6521;50.498;8.474;2023-11-18T03:15:53;17.90;;;7.40;;
12906;SDS011;6521;50.498;8.474;2023-11-18T03:18:24;20.67;;;7.40;;
12906;SDS011;6521;50.498;8.474;2023-11-18T03:20:56;21.73;;;7.83;;
12906;SDS011;6521;50.498;8.474;2023-11-18T03:23:27;15.00;;;5.83;;
12906;SDS011;6521;50.498;8.474;2023-11-18T03:25:58;16.77;;;6.73;;
12906;SDS011;6521;50.498;8.474;2023-11-18T03:28:29;11.00;;;7.33;;
12906;SDS011;6521;50.498;8.474;2023-11-18T03:30:59;18.37;;;6.83;;
12906;SDS011;6521;50.498;8.474;2023-11-18T03:33:32;10.37;;;6.50;;
12906;SDS011;6521;50.498;8.474;2023-11-18T03:36:03;14.20;;;6.97;;
12906;SDS011;6521;50.498;8.474;2023-11-18T03:38:34;25.23;;;6.80;;
12906;SDS011;6521;50.498;8.474;2023-11-18T03:41:05;22.37;;;6.53;;
12906;SDS011;6521;50.498;8.474;2023-11-18T03:43:39;17.57;;;6.30;;
12906;SDS011;6521;50.498;8.474;2023-11-18T03:46:10;42.93;;;7.10;;
12906;SDS011;6521;50.498;8.474;2023-11-18T03:48:41;10.00;;;6.50;;
12906;SDS011;6521;50.498;8.474;2023-11-18T03:51:14;8.80;;;5.87;;
12906;SDS011;6521;50.498;8.474;2023-11-18T03:53:47;10.53;;;6.27;;
12906;SDS011;6521;50.498;8.474;2023-11-18T03:56:18;9.00;;;5.90;;
12906;SDS011;6521;50.498;8.474;2023-11-18T03:58:49;25.70;;;7.87;;
12906;SDS011;6521;50.498;8.474;2023-11-18T04:01:23;29.23;;;8.23;;
12906;SDS011;6521;50.498;8.474;2023-11-18T04:03:57;13.17;;;6.93;;
12906;SDS011;6521;50.498;8.474;2023-11-18T04:06:27;25.33;;;7.77;;
12906;SDS011;6521;50.498;8.474;2023-11-18T04:08:58;21.37;;;8.40;;
12906;SDS011;6521;50.498;8.474;2023-11-18T04:11:29;12.67;;;7.30;;
12906;SDS011;6521;50.498;8.474;2023-11-18T04:14:00;15.80;;;7.67;;
12906;SDS011;6521;50.498;8.474;2023-11-18T04:16:31;18.53;;;8.37;;
12906;SDS011;6521;50.498;8.474;2023-11-18T04:19:02;13.97;;;7.20;;
12906;SDS011;6521;50.498;8.474;2023-11-18T04:21:33;15.73;;;7.40;;
12906;SDS011;6521;50.498;8.474;2023-11-18T04:24:04;17.30;;;7.90;;
12906;SDS011;6521;50.498;8.474;2023-11-18T04:26:35;17.47;;;8.20;;
12906;SDS011;6521;50.498;8.474;2023-11-18T04:29:07;28.97;;;7.93;;
12906;SDS011;6521;50.498;8.474;2023-11-18T04:31:38;30.40;;;7.23;;
12906;SDS011;6521;50.498;8.474;2023-11-18T04:34:10;22.13;;;7.23;;
12906;SDS011;6521;50.498;8.474;2023-11-18T04:36:41;20.03;;;7.20;;
12906;SDS011;6521;50.498;8.474;2023-11-18T04:39:12;15.23;;;7.20;;
12906;SDS011;6521;50.498;8.474;2023-11-18T04:41:43;11.73;;;7.43;;
12906;SDS011;6521;50.498;8.474;2023-11-18T04:44:14;19.30;;;7.70;;
12906;SDS011;6521;50.498;8.474;2023-11-18T04:46:46;21.93;;;8.47;;
12906;SDS011;6521;50.498;8.474;2023-11-18T04:49:17;14.97;;;7.87;;
12906;SDS011;6521;50.498;8.474;2023-11-18T04:51:47;63.57;;;8.27;;
12906;SDS011;6521;50.498;8.474;2023-11-18T04:54:18;39.33;;;7.20;;
12906;SDS011;6521;50.498;8.474;2023-11-18T04:56:49;48.40;;;6.40;;
12906;SDS011;6521;50.498;8.474;2023-11-18T04:59:20;20.63;;;7.20;;
12906;SDS011;6521;50.498;8.474;2023-11-18T05:01:51;19.93;;;7.03;;
12906;SDS011;6521;50.498;8.474;2023-11-18T05:04:23;11.43;;;6.60;;
12906;SDS011;6521;50.498;8.474;2023-11-18T05:06:54;22.73;;;7.27;;
12906;SDS011;6521;50.498;8.474;2023-11-18T05:09:25;15.00;;;7.10;;
12906;SDS011;6521;50.498;8.474;2023-11-18T05:11:57;12.00;;;6.73;;
12906;SDS011;6521;50.498;8.474;2023-11-18T05:14:30;11.27;;;6.30;;
12906;SDS011;6521;50.498;8.474;2023-11-18T05:17:02;11.23;;;6.67;;
12906;SDS011;6521;50.498;8.474;2023-11-18T05:19:35;12.63;;;7.57;;
12906;SDS011;6521;50.498;8.474;2023-11-18T05:22:06;15.57;;;7.10;;
12906;SDS011;6521;50.498;8.474;2023-11-18T05:24:37;17.13;;;6.93;;
12906;SDS011;6521;50.498;8.474;2023-11-18T05:27:07;14.17;;;6.97;;
12906;SDS011;6521;50.498;8.474;2023-11-18T05:29:38;15.70;;;6.80;;
12906;SDS011;6521;50.498;8.474;2023-11-18T05:32:11;13.80;;;7.53;;
12906;SDS011;6521;50.498;8.474;2023-11-18T05:34:42;17.80;;;6.43;;
12906;SDS011;6521;50.498;8.474;2023-11-18T05:37:13;10.50;;;6.93;;
12906;SDS011;6521;50.498;8.474;2023-11-18T05:39:44;13.47;;;6.50;;
12906;SDS011;6521;50.498;8.474;2023-11-18T05:42:15;20.37;;;6.77;;
12906;SDS011;6521;50.498;8.474;2023-11-18T05:44:46;10.03;;;5.90;;
12906;SDS011;6521;50.498;8.474;2023-11-18T05:47:17;16.07;;;6.23;;
12906;SDS011;6521;50.498;8.474;2023-11-18T05:49:47;17.93;;;6.50;;
12906;SDS011;6521;50.498;8.474;2023-11-18T05:52:18;13.10;;;5.90;;
12906;SDS011;6521;50.498;8.474;2023-11-18T05:54:50;9.97;;;6.47;;
12906;SDS011;6521;50.498;8.474;2023-11-18T05:57:21;11.17;;;6.67;;
12906;SDS011;6521;50.498;8.474;2023-11-18T05:59:52;15.97;;;6.97;;
12906;SDS011;6521;50.498;8.474;2023-11-18T06:02:25;10.40;;;5.87;;
12906;SDS011;6521;50.498;8.474;2023-11-18T06:04:55;11.63;;;6.67;;
12906;SDS011;6521;50.498;8.474;2023-11-18T06:07:27;13.67;;;6.03;;
12906;SDS011;6521;50.498;8.474;2023-11-18T06:09:59;8.30;;;5.83;;
12906;SDS011;6521;50.498;8.474;2023-11-18T06:12:30;7.53;;;5.70;;
12906;SDS011;6521;50.498;8.474;2023-11-18T06:15:01;16.27;;;6.37;;
12906;SDS011;6521;50.498;8.474;2023-11-18T06:17:32;10.57;;;5.40;;
12906;SDS011;6521;50.498;8.474;2023-11-18T06:20:03;8.33;;;5.87;;
12906;SDS011;6521;50.498;8.474;2023-11-18T06:22:36;13.60;;;5.93;;
12906;SDS011;6521;50.498;8.474;2023-11-18T06:25:07;21.70;;;7.07;;
12906;SDS011;6521;50.498;8.474;2023-11-18T06:27:39;12.50;;;6.20;;
12906;SDS011;6521;50.498;8.474;2023-11-18T06:30:09;22.00;;;6.17;;
12906;SDS011;6521;50.498;8.474;2023-11-18T06:32:42;19.33;;;6.13;;
12906;SDS011;6521;50.498;8.474;2023-11-18T06:35:12;17.67;;;5.77;;
12906;SDS011;6521;50.498;8.474;2023-11-18T06:37:46;21.50;;;5.33;;
12906;SDS011;6521;50.498;8.474;2023-11-18T06:40:17;21.87;;;5.70;;
12906;SDS011;6521;50.498;8.474;2023-11-18T06:42:49;16.80;;;5.43;;
12906;SDS011;6521;50.498;8.474;2023-11-18T06:45:20;18.77;;;5.50;;
12906;SDS011;6521;50.498;8.474;2023-11-18T06:47:52;8.67;;;5.40;;
12906;SDS011;6521;50.498;8.474;2023-11-18T06:50:24;9.47;;;5.20;;
12906;SDS011;6521;50.498;8.474;2023-11-18T06:52:54;10.77;;;5.33;;
12906;SDS011;6521;50.498;8.474;2023-11-18T06:55:26;10.27;;;5.90;;
12906;SDS011;6521;50.498;8.474;2023-11-18T06:57:57;15.43;;;5.57;;
12906;SDS011;6521;50.498;8.474;2023-11-18T07:00:28;9.00;;;5.70;;
12906;SDS011;6521;50.498;8.474;2023-11-18T07:02:59;8.90;;;5.67;;
12906;SDS011;6521;50.498;8.474;2023-11-18T07:05:31;14.53;;;6.50;;
12906;SDS011;6521;50.498;8.474;2023-11-18T07:08:02;18.53;;;6.63;;
12906;SDS011;6521;50.498;8.474;2023-11-18T07:10:33;17.27;;;6.80;;
12906;SDS011;6521;50.498;8.474;2023-11-18T07:13:05;12.13;;;6.63;;
12906;SDS011;6521;50.498;8.474;2023-11-18T07:15:37;8.40;;;5.50;;
12906;SDS011;6521;50.498;8.474;2023-11-18T07:18:08;10.53;;;6.53;;
12906;SDS011;6521;50.498;8.474;2023-11-18T07:20:39;14.80;;;6.67;;
12906;SDS011;6521;50.498;8.474;2023-11-18T07:23:10;39.07;;;7.67;;
12906;SDS011;6521;50.498;8.474;2023-11-18T07:25:40;20.33;;;6.37;;
12906;SDS011;6521;50.498;8.474;2023-11-18T07:28:13;18.40;;;6.10;;
12906;SDS011;6521;50.498;8.474;2023-11-18T07:30:47;11.07;;;5.97;;
12906;SDS011;6521;50.498;8.474;2023-11-18T07:33:18;12.60;;;5.83;;
12906;SDS011;6521;50.498;8.474;2023-11-18T07:35:50;9.57;;;5.70;;
12906;SDS011;6521;50.498;8.474;2023-11-18T07:38:22;14.63;;;6.07;;
12906;SDS011;6521;50.498;8.474;2023-11-18T07:40:53;16.60;;;6.37;;
12906;SDS011;6521;50.498;8.474;2023-11-18T07:43:26;12.63;;;6.97;;
12906;SDS011;6521;50.498;8.474;2023-11-18T07:45:59;15.60;;;6.17;;
12906;SDS011;6521;50.498;8.474;2023-11-18T07:48:29;9.07;;;5.70;;
12906;SDS011;6521;50.498;8.474;2023-11-18T07:51:01;14.97;;;6.17;;
12906;SDS011;6521;50.498;8.474;2023-11-18T07:53:32;19.40;;;6.80;;
12906;SDS011;6521;50.498;8.474;2023-11-18T07:56:03;13.80;;;7.23;;
12906;SDS011;6521;50.498;8.474;2023-11-18T07:58:34;13.50;;;7.13;;
12906;SDS011;6521;50.498;8.474;2023-11-18T08:01:07;17.40;;;7.40;;
12906;SDS011;6521;50.498;8.474;2023-11-18T08:03:39;14.47;;;7.37;;
12906;SDS011;6521;50.498;8.474;2023-11-18T08:06:11;16.10;;;7.70;;
12906;SDS011;6521;50.498;8.474;2023-11-18T08:08:42;23.83;;;9.17;;
12906;SDS011;6521;50.498;8.474;2023-11-18T08:11:13;34.00;;;8.83;;
12906;SDS011;6521;50.498;8.474;2023-11-18T08:13:44;19.60;;;8.27;;
12906;SDS011;6521;50.498;8.474;2023-11-18T08:16:14;22.80;;;8.67;;
12906;SDS011;6521;50.498;8.474;2023-11-18T08:18:46;17.60;;;8.83;;
12906;SDS011;6521;50.498;8.474;2023-11-18T08:21:16;22.80;;;8.30;;
12906;SDS011;6521;50.498;8.474;2023-11-18T08:23:47;19.67;;;8.07;;
12906;SDS011;6521;50.498;8.474;2023-11-18T08:26:18;16.07;;;7.77;;
12906;SDS011;6521;50.498;8.474;2023-11-18T08:28:49;15.80;;;8.47;;
12906;SDS011;6521;50.498;8.474;2023-11-18T08:31:20;16.50;;;9.10;;
12906;SDS011;6521;50.498;8.474;2023-11-18T08:33:51;26.73;;;9.40;;
12906;SDS011;6521;50.498;8.474;2023-11-18T08:36:24;22.40;;;9.13;;
12906;SDS011;6521;50.498;8.474;2023-11-18T08:38:57;14.93;;;9.33;;
12906;SDS011;6521;50.498;8.474;2023-11-18T08:41:28;20.30;;;9.73;;
12906;SDS011;6521;50.498;8.474;2023-11-18T08:44:01;16.10;;;9.47;;
12906;SDS011;6521;50.498;8.474;2023-11-18T08:46:32;18.57;;;9.27;;
12906;SDS011;6521;50.498;8.474;2023-11-18T08:49:03;19.23;;;9.97;;
12906;SDS011;6521;50.498;8.474;2023-11-18T08:51:41;22.13;;;9.20;;
12906;SDS011;6521;50.498;8.474;2023-11-18T08:54:14;16.90;;;9.47;;
12906;SDS011;6521;50.498;8.474;2023-11-18T08:57:06;18.90;;;9.10;;
12906;SDS011;6521;50.498;8.474;2023-11-18T08:59:55;18.87;;;9.70;;
12906;SDS011;6521;50.498;8.474;2023-11-18T09:02:29;19.30;;;10.50;;
12906;SDS011;6521;50.498;8.474;2023-11-18T09:05:00;19.33;;;9.47;;
12906;SDS011;6521;50.498;8.474;2023-11-18T09:07:31;18.10;;;10.67;;
12906;SDS011;6521;50.498;8.474;2023-11-18T09:10:05;15.63;;;9.63;;
12906;SDS011;6521;50.498;8.474;2023-11-18T09:12:36;20.40;;;10.33;;
12906;SDS011;6521;50.498;8.474;2023-11-18T09:15:06;21.30;;;10.00;;
12906;SDS011;6521;50.498;8.474;2023-11-18T09:17:39;22.80;;;10.23;;
12906;SDS011;6521;50.498;8.474;2023-11-18T09:20:10;24.90;;;10.53;;
12906;SDS011;6521;50.498;8.474;2023-11-18T09:22:41;14.77;;;9.97;;
12906;SDS011;6521;50.498;8.474;2023-11-18T09:25:12;18.93;;;10.27;;
12906;SDS011;6521;50.498;8.474;2023-11-18T09:27:43;24.30;;;11.27;;
12906;SDS011;6521;50.498;8.474;2023-11-18T09:30:13;19.23;;;10.77;;
12906;SDS011;6521;50.498;8.474;2023-11-18T09:32:44;19.10;;;10.27;;
12906;SDS011;6521;50.498;8.474;2023-11-18T09:35:17;15.03;;;9.80;;
12906;SDS011;6521;50.498;8.474;2023-11-18T09:37:50;15.70;;;9.97;;
12906;SDS011;6521;50.498;8.474;2023-11-18T09:40:21;23.40;;;10.43;;
12906;SDS011;6521;50.498;8.474;2023-11-18T09:42:55;17.93;;;10.77;;
12906;SDS011;6521;50.498;8.474;2023-11-18T09:45:29;21.40;;;11.40;;
12906;SDS011;6521;50.498;8.474;2023-11-18T09:48:01;25.10;;;10.10;;
12906;SDS011;6521;50.498;8.474;2023-11-18T09:50:37;28.30;;;11.37;;
12906;SDS011;6521;50.498;8.474;2023-11-18T09:53:08;53.40;;;12.80;;
12906;SDS011;6521;50.498;8.474;2023-11-18T09:55:59;28.70;;;11.37;;
12906;SDS011;6521;50.498;8.474;2023-11-18T09:58:40;30.57;;;12.67;;
12906;SDS011;6521;50.498;8.474;2023-11-18T10:01:19;21.80;;;11.70;;
12906;SDS011;6521;50.498;8.474;2023-11-18T10:03:52;34.70;;;11.77;;
12906;SDS011;6521;50.498;8.474;2023-11-18T10:06:25;24.57;;;11.53;;
12906;SDS011;6521;50.498;8.474;2023-11-18T10:08:58;32.33;;;12.17;;
12906;SDS011;6521;50.498;8.474;2023-11-18T10:11:48;26.37;;;11.80;;
12906;SDS011;6521;50.498;8.474;2023-11-18T10:14:19;28.97;;;12.47;;
12906;SDS011;6521;50.498;8.474;2023-11-18T10:16:49;30.50;;;12.33;;
12906;SDS011;6521;50.498;8.474;2023-11-18T10:19:24;23.63;;;11.90;;
12906;SDS011;6521;50.498;8.474;2023-11-18T10:21:56;28.27;;;12.87;;
12906;SDS011;6521;50.498;8.474;2023-11-18T10:24:27;22.57;;;12.07;;
12906;SDS011;6521;50.498;8.474;2023-11-18T10:27:00;25.47;;;13.33;;
12906;SDS011;6521;50.498;8.474;2023-11-18T10:29:31;27.03;;;12.37;;
12906;SDS011;6521;50.498;8.474;2023-11-18T10:32:05;25.23;;;12.83;;
12906;SDS011;6521;50.498;8.474;2023-11-18T10:34:40;21.93;;;12.47;;
12906;SDS011;6521;50.498;8.474;2023-11-18T10:37:11;33.43;;;12.87;;
12906;SDS011;6521;50.498;8.474;2023-11-18T10:39:46;26.30;;;12.43;;
12906;SDS011;6521;50.498;8.474;2023-11-18T10:42:18;22.93;;;11.33;;
12906;SDS011;6521;50.498;8.474;2023-11-18T10:44:56;22.17;;;12.83;;
12906;SDS011;6521;50.498;8.474;2023-11-18T10:47:32;20.43;;;11.70;;
12906;SDS011;6521;50.498;8.474;2023-11-18T10:50:04;23.07;;;12.50;;
12906;SDS011;6521;50.498;8.474;2023-11-18T10:52:35;26.40;;;13.03;;
12906;SDS011;6521;50.498;8.474;2023-11-18T10:55:10;33.77;;;14.00;;
12906;SDS011;6521;50.498;8.474;2023-11-18T10:57:43;27.40;;;14.37;;
12906;SDS011;6521;50.498;8.474;2023-11-18T11:00:14;32.30;;;14.93;;
12906;SDS011;6521;50.498;8.474;2023-11-18T11:02:49;23.70;;;12.73;;
12906;SDS011;6521;50.498;8.474;2023-11-18T11:05:29;26.93;;;14.03;;
12906;SDS011;6521;50.498;8.474;2023-11-18T11:08:02;31.13;;;13.93;;
12906;SDS011;6521;50.498;8.474;2023-11-18T11:10:35;20.53;;;12.57;;
12906;SDS011;6521;50.498;8.474;2023-11-18T11:13:06;27.20;;;13.67;;
12906;SDS011;6521;50.498;8.474;2023-11-18T11:15:41;23.20;;;12.57;;
12906;SDS011;6521;50.498;8.474;2023-11-18T11:18:19;25.37;;;12.90;;
12906;SDS011;6521;50.498;8.474;2023-11-18T11:20:59;27.53;;;13.20;;
12906;SDS011;6521;50.498;8.474;2023-11-18T11:30:02;39.00;;;14.23;;
12906;SDS011;6521;50.498;8.474;2023-11-18T11:35:43;29.17;;;14.27;;
12906;SDS011;6521;50.498;8.474;2023-11-18T11:38:19;32.17;;;16.70;;
12906;SDS011;6521;50.498;8.474;2023-11-18T11:40:50;26.93;;;15.33;;
12906;SDS011;6521;50.498;8.474;2023-11-18T11:43:24;34.23;;;14.77;;
12906;SDS011;6521;50.498;8.474;2023-11-18T11:45:58;32.53;;;16.27;;
12906;SDS011;6521;50.498;8.474;2023-11-18T11:48:29;31.37;;;15.57;;
12906;SDS011;6521;50.498;8.474;2023-11-18T11:51:09;36.53;;;16.07;;
12906;SDS011;6521;50.498;8.474;2023-11-18T11:54:29;34.90;;;16.57;;
12906;SDS011;6521;50.498;8.474;2023-11-18T11:56:51;49.27;;;17.00;;
12906;SDS011;6521;50.498;8.474;2023-11-18T12:02:17;32.50;;;14.97;;
12906;SDS011;6521;50.498;8.474;2023-11-18T12:04:48;29.13;;;15.37;;
12906;SDS011;6521;50.498;8.474;2023-11-18T12:07:23;31.73;;;15.03;;
12906;SDS011;6521;50.498;8.474;2023-11-18T12:09:57;28.70;;;15.37;;
12906;SDS011;6521;50.498;8.474;2023-11-18T12:12:29;27.33;;;15.23;;
12906;SDS011;6521;50.498;8.474;2023-11-18T12:15:01;32.40;;;15.07;;
12906;SDS011;6521;50.498;8.474;2023-11-18T12:20:37;29.60;;;14.10;;
12906;SDS011;6521;50.498;8.474;2023-11-18T12:23:13;34.03;;;15.20;;
12906;SDS011;6521;50.498;8.474;2023-11-18T12:25:44;36.07;;;16.60;;
12906;SDS011;6521;50.498;8.474;2023-11-18T12:28:24;30.73;;;14.97;;
12906;SDS011;6521;50.498;8.474;2023-11-18T12:30:57;30.10;;;13.97;;
12906;SDS011;6521;50.498;8.474;2023-11-18T12:33:51;28.53;;;15.50;;
12906;SDS011;6521;50.498;8.474;2023-11-18T12:39:20;36.93;;;20.13;;
12906;SDS011;6521;50.498;8.474;2023-11-18T12:42:11;35.00;;;19.07;;
12906;SDS011;6521;50.498;8.474;2023-11-18T12:48:03;37.17;;;18.30;;
12906;SDS011;6521;50.498;8.474;2023-11-18T12:50:42;34.43;;;19.10;;
12906;SDS011;6521;50.498;8.474;2023-11-18T12:53:15;32.70;;;18.10;;
12906;SDS011;6521;50.498;8.474;2023-11-18T12:55:48;35.03;;;19.53;;
12906;SDS011;6521;50.498;8.474;2023-11-18T12:58:19;33.27;;;19.23;;
12906;SDS011;6521;50.498;8.474;2023-11-18T13:00:50;38.13;;;18.80;;
12906;SDS011;6521;50.498;8.474;2023-11-18T13:03:21;70.83;;;19.73;;
12906;SDS011;6521;50.498;8.474;2023-11-18T13:05:51;60.80;;;19.57;;
12906;SDS011;6521;50.498;8.474;2023-11-18T13:08:22;54.07;;;22.10;;
12906;SDS011;6521;50.498;8.474;2023-11-18T13:10:53;42.43;;;21.80;;
12906;SDS011;6521;50.498;8.474;2023-11-18T13:13:23;45.37;;;22.77;;
12906;SDS011;6521;50.498;8.474;2023-11-18T13:15:54;58.10;;;27.93;;
12906;SDS011;6521;50.498;8.474;2023-11-18T13:18:25;55.97;;;25.47;;
12906;SDS011;6521;50.498;8.474;2023-11-18T13:20:57;49.67;;;22.33;;
12906;SDS011;6521;50.498;8.474;2023-11-18T13:23:28;47.60;;;20.87;;
12906;SDS011;6521;50.498;8.474;2023-11-18T13:26:00;37.60;;;19.77;;
12906;SDS011;6521;50.498;8.474;2023-11-18T13:28:33;37.77;;;17.37;;
12906;SDS011;6521;50.498;8.474;2023-11-18T13:31:03;36.77;;;17.63;;
12906;SDS011;6521;50.498;8.474;2023-11-18T13:33:38;53.70;;;17.83;;
12906;SDS011;6521;50.498;8.474;2023-11-18T13:36:09;44.97;;;17.20;;
12906;SDS011;6521;50.498;8.474;2023-11-18T13:38:40;36.53;;;14.57;;
12906;SDS011;6521;50.498;8.474;2023-11-18T13:41:27;32.33;;;14.43;;
12906;SDS011;6521;50.498;8.474;2023-11-18T13:43:59;29.10;;;16.13;;
12906;SDS011;6521;50.498;8.474;2023-11-18T13:46:31;45.93;;;16.13;;
12906;SDS011;6521;50.498;8.474;2023-11-18T13:49:01;32.17;;;14.27;;
12906;SDS011;6521;50.498;8.474;2023-11-18T13:51:36;39.37;;;15.33;;
12906;SDS011;6521;50.498;8.474;2023-11-18T13:54:07;31.83;;;13.80;;
12906;SDS011;6521;50.498;8.474;2023-11-18T13:56:37;35.73;;;14.80;;
12906;SDS011;6521;50.498;8.474;2023-11-18T13:59:08;40.20;;;14.63;;
12906;SDS011;6521;50.498;8.474;2023-11-18T14:01:40;31.60;;;14.23;;
12906;SDS011;6521;50.498;8.474;2023-11-18T14:04:12;47.13;;;15.70;;
12906;SDS011;6521;50.498;8.474;2023-11-18T14:06:43;26.40;;;14.07;;
12906;SDS011;6521;50.498;8.474;2023-11-18T14:09:14;20.10;;;12.30;;
12906;SDS011;6521;50.498;8.474;2023-11-18T14:11:46;26.77;;;12.73;;
12906;SDS011;6521;50.498;8.474;2023-11-18T14:14:20;15.63;;;10.07;;
12906;SDS011;6521;50.498;8.474;2023-11-18T14:16:51;14.73;;;9.80;;
12906;SDS011;6521;50.498;8.474;2023-11-18T14:19:29;18.03;;;9.20;;
12906;SDS011;6521;50.498;8.474;2023-11-18T14:21:59;17.10;;;8.93;;
12906;SDS011;6521;50.498;8.474;2023-11-18T14:24:31;16.93;;;9.47;;
12906;SDS011;6521;50.498;8.474;2023-11-18T14:27:02;14.10;;;8.43;;
12906;SDS011;6521;50.498;8.474;2023-11-18T14:29:34;18.70;;;8.77;;
12906;SDS011;6521;50.498;8.474;2023-11-18T14:32:06;24.60;;;10.13;;
12906;SDS011;6521;50.498;8.474;2023-11-18T14:34:39;13.70;;;8.63;;
12906;SDS011;6521;50.498;8.474;2023-11-18T14:37:11;16.40;;;8.73;;
12906;SDS011;6521;50.498;8.474;2023-11-18T14:39:42;12.90;;;8.30;;
12906;SDS011;6521;50.498;8.474;2023-11-18T14:42:12;27.07;;;9.17;;
12906;SDS011;6521;50.498;8.474;2023-11-18T14:44:43;14.60;;;9.10;;
12906;SDS011;6521;50.498;8.474;2023-11-18T14:47:14;16.10;;;8.87;;
12906;SDS011;6521;50.498;8.474;2023-11-18T14:49:44;13.27;;;10.30;;
12906;SDS011;6521;50.498;8.474;2023-11-18T14:52:15;14.33;;;9.70;;
12906;SDS011;6521;50.498;8.474;2023-11-18T14:54:46;14.23;;;10.23;;
12906;SDS011;6521;50.498;8.474;2023-11-18T14:57:17;14.87;;;9.83;;
12906;SDS011;6521;50.498;8.474;2023-11-18T14:59:49;17.40;;;11.13;;
12906;SDS011;6521;50.498;8.474;2023-11-18T15:02:20;16.77;;;10.57;;
12906;SDS011;6521;50.498;8.474;2023-11-18T15:04:50;14.20;;;10.97;;
12906;SDS011;6521;50.498;8.474;2023-11-18T15:07:22;15.37;;;11.17;;
12906;SDS011;6521;50.498;8.474;2023-11-18T15:09:53;15.50;;;12.00;;
12906;SDS011;6521;50.498;8.474;2023-11-18T15:12:24;14.87;;;11.07;;
12906;SDS011;6521;50.498;8.474;2023-11-18T15:14:57;16.50;;;12.70;;
12906;SDS011;6521;50.498;8.474;2023-11-18T15:17:30;18.23;;;13.23;;
12906;SDS011;6521;50.498;8.474;2023-11-18T15:20:01;20.37;;;12.63;;
12906;SDS011;6521;50.498;8.474;2023-11-18T15:22:31;18.43;;;12.40;;
12906;SDS011;6521;50.498;8.474;2023-11-18T15:25:02;20.70;;;14.10;;
12906;SDS011;6521;50.498;8.474;2023-11-18T15:27:33;18.97;;;13.37;;
12906;SDS011;6521;50.498;8.474;2023-11-18T15:30:05;20.53;;;13.57;;
12906;SDS011;6521;50.498;8.474;2023-11-18T15:32:40;23.27;;;15.03;;
12906;SDS011;6521;50.498;8.474;2023-11-18T15:35:12;21.13;;;13.97;;